ΕΜΥ, Εθνική Μετεωρολογική Υπηρεσία - Δελτία Καιρού, Προγνώσεις

ΑΕΡΟΝΑΥΤΙΛΙΑ

GREEK AIRPORTS CODES

TAF LGTT 250700Z 2509/2518 02017KT 9999 FEW030 TEMPO 2509/2516 03017G27KT=

EUROPEAN AIRPORTS CODES

LFPO 250800Z VRB03KT CAVOK 25/16 Q1019 NOSIG=